sensor_id;sensor_type;location;lat;lon;timestamp;P1;durP1;ratioP1;P2;durP2;ratioP2
23370;SDS011;11858;51.056;3.712;2023-03-12T00:02:11;26.70;;;24.30;;
23370;SDS011;11858;51.056;3.712;2023-03-12T00:04:37;27.73;;;23.95;;
23370;SDS011;11858;51.056;3.712;2023-03-12T00:07:03;27.20;;;24.45;;
23370;SDS011;11858;51.056;3.712;2023-03-12T00:09:33;27.15;;;24.25;;
23370;SDS011;11858;51.056;3.712;2023-03-12T00:12:00;27.15;;;24.33;;
23370;SDS011;11858;51.056;3.712;2023-03-12T00:14:26;27.92;;;23.80;;
23370;SDS011;11858;51.056;3.712;2023-03-12T00:16:52;26.92;;;24.20;;
23370;SDS011;11858;51.056;3.712;2023-03-12T00:19:20;26.35;;;23.65;;
23370;SDS011;11858;51.056;3.712;2023-03-12T00:21:46;27.98;;;23.55;;
23370;SDS011;11858;51.056;3.712;2023-03-12T00:24:12;26.10;;;23.60;;
23370;SDS011;11858;51.056;3.712;2023-03-12T00:26:38;25.35;;;22.90;;
23370;SDS011;11858;51.056;3.712;2023-03-12T00:29:04;24.83;;;22.40;;
23370;SDS011;11858;51.056;3.712;2023-03-12T00:31:30;26.08;;;22.13;;
23370;SDS011;11858;51.056;3.712;2023-03-12T00:33:57;24.27;;;21.95;;
23370;SDS011;11858;51.056;3.712;2023-03-12T00:36:25;24.38;;;21.90;;
23370;SDS011;11858;51.056;3.712;2023-03-12T00:38:53;23.23;;;21.08;;
23370;SDS011;11858;51.056;3.712;2023-03-12T00:41:20;22.63;;;20.58;;
23370;SDS011;11858;51.056;3.712;2023-03-12T00:43:47;22.20;;;20.23;;
23370;SDS011;11858;51.056;3.712;2023-03-12T00:46:14;21.48;;;19.25;;
23370;SDS011;11858;51.056;3.712;2023-03-12T00:48:41;22.15;;;19.85;;
23370;SDS011;11858;51.056;3.712;2023-03-12T00:51:06;19.90;;;18.00;;
23370;SDS011;11858;51.056;3.712;2023-03-12T00:53:33;20.10;;;18.38;;
23370;SDS011;11858;51.056;3.712;2023-03-12T00:56:00;19.05;;;17.23;;
23370;SDS011;11858;51.056;3.712;2023-03-12T00:58:26;19.35;;;17.65;;
23370;SDS011;11858;51.056;3.712;2023-03-12T01:00:52;20.00;;;18.05;;
23370;SDS011;11858;51.056;3.712;2023-03-12T01:03:18;18.95;;;17.15;;
23370;SDS011;11858;51.056;3.712;2023-03-12T01:05:44;20.10;;;17.48;;
23370;SDS011;11858;51.056;3.712;2023-03-12T01:08:09;19.00;;;17.13;;
23370;SDS011;11858;51.056;3.712;2023-03-12T01:10:39;18.83;;;17.13;;
23370;SDS011;11858;51.056;3.712;2023-03-12T01:13:06;21.13;;;17.48;;
23370;SDS011;11858;51.056;3.712;2023-03-12T01:15:33;19.85;;;17.10;;
23370;SDS011;11858;51.056;3.712;2023-03-12T01:17:58;18.30;;;16.48;;
23370;SDS011;11858;51.056;3.712;2023-03-12T01:20:24;18.00;;;16.20;;
23370;SDS011;11858;51.056;3.712;2023-03-12T01:22:50;20.33;;;17.10;;
23370;SDS011;11858;51.056;3.712;2023-03-12T01:25:16;18.80;;;16.80;;
23370;SDS011;11858;51.056;3.712;2023-03-12T01:27:42;16.60;;;15.02;;
23370;SDS011;11858;51.056;3.712;2023-03-12T01:30:09;18.10;;;16.35;;
23370;SDS011;11858;51.056;3.712;2023-03-12T01:32:35;18.15;;;15.25;;
23370;SDS011;11858;51.056;3.712;2023-03-12T01:35:01;16.67;;;14.98;;
23370;SDS011;11858;51.056;3.712;2023-03-12T01:37:27;20.08;;;14.35;;
23370;SDS011;11858;51.056;3.712;2023-03-12T01:39:53;22.17;;;15.30;;
23370;SDS011;11858;51.056;3.712;2023-03-12T01:42:19;15.18;;;13.63;;
23370;SDS011;11858;51.056;3.712;2023-03-12T01:44:48;15.40;;;13.82;;
23370;SDS011;11858;51.056;3.712;2023-03-12T01:47:25;15.38;;;12.70;;
23370;SDS011;11858;51.056;3.712;2023-03-12T01:49:52;15.07;;;13.65;;
23370;SDS011;11858;51.056;3.712;2023-03-12T01:57:33;11.60;;;10.00;;
23370;SDS011;11858;51.056;3.712;2023-03-12T02:00:04;11.07;;;8.90;;
23370;SDS011;11858;51.056;3.712;2023-03-12T02:02:35;15.38;;;7.63;;
23370;SDS011;11858;51.056;3.712;2023-03-12T02:05:08;14.10;;;7.13;;
23370;SDS011;11858;51.056;3.712;2023-03-12T02:07:36;10.75;;;6.40;;
23370;SDS011;11858;51.056;3.712;2023-03-12T02:10:02;14.02;;;7.40;;
23370;SDS011;11858;51.056;3.712;2023-03-12T02:12:29;16.42;;;7.18;;
23370;SDS011;11858;51.056;3.712;2023-03-12T02:14:55;12.05;;;6.82;;
23370;SDS011;11858;51.056;3.712;2023-03-12T02:17:21;11.63;;;6.80;;
23370;SDS011;11858;51.056;3.712;2023-03-12T02:19:59;16.40;;;6.82;;
23370;SDS011;11858;51.056;3.712;2023-03-12T02:22:33;12.15;;;6.85;;
23370;SDS011;11858;51.056;3.712;2023-03-12T02:30:16;19.67;;;7.80;;
23370;SDS011;11858;51.056;3.712;2023-03-12T02:32:44;12.75;;;6.97;;
23370;SDS011;11858;51.056;3.712;2023-03-12T02:35:13;14.63;;;7.25;;
23370;SDS011;11858;51.056;3.712;2023-03-12T02:37:47;16.85;;;7.78;;
23370;SDS011;11858;51.056;3.712;2023-03-12T02:40:18;17.45;;;7.65;;
23370;SDS011;11858;51.056;3.712;2023-03-12T02:42:51;12.73;;;7.43;;
23370;SDS011;11858;51.056;3.712;2023-03-12T02:45:18;11.68;;;7.45;;
23370;SDS011;11858;51.056;3.712;2023-03-12T02:47:44;13.98;;;7.85;;
23370;SDS011;11858;51.056;3.712;2023-03-12T02:50:09;13.23;;;8.15;;
23370;SDS011;11858;51.056;3.712;2023-03-12T02:52:35;13.73;;;7.53;;
23370;SDS011;11858;51.056;3.712;2023-03-12T02:55:02;15.25;;;7.95;;
23370;SDS011;11858;51.056;3.712;2023-03-12T02:57:29;13.20;;;7.80;;
23370;SDS011;11858;51.056;3.712;2023-03-12T02:59:55;13.85;;;7.93;;
23370;SDS011;11858;51.056;3.712;2023-03-12T03:02:21;14.02;;;9.00;;
23370;SDS011;11858;51.056;3.712;2023-03-12T03:04:48;17.48;;;8.63;;
23370;SDS011;11858;51.056;3.712;2023-03-12T03:07:14;11.18;;;7.88;;
23370;SDS011;11858;51.056;3.712;2023-03-12T03:09:40;10.00;;;7.95;;
23370;SDS011;11858;51.056;3.712;2023-03-12T03:12:06;12.35;;;7.88;;
23370;SDS011;11858;51.056;3.712;2023-03-12T03:14:31;11.93;;;7.63;;
23370;SDS011;11858;51.056;3.712;2023-03-12T03:16:57;15.70;;;7.93;;
23370;SDS011;11858;51.056;3.712;2023-03-12T03:19:23;11.07;;;8.52;;
23370;SDS011;11858;51.056;3.712;2023-03-12T03:21:49;16.77;;;9.05;;
23370;SDS011;11858;51.056;3.712;2023-03-12T03:24:15;12.13;;;8.95;;
23370;SDS011;11858;51.056;3.712;2023-03-12T03:26:41;14.73;;;8.98;;
23370;SDS011;11858;51.056;3.712;2023-03-12T03:29:06;9.25;;;8.00;;
23370;SDS011;11858;51.056;3.712;2023-03-12T03:31:32;12.10;;;7.53;;
23370;SDS011;11858;51.056;3.712;2023-03-12T03:33:58;15.43;;;8.57;;
23370;SDS011;11858;51.056;3.712;2023-03-12T03:36:24;12.25;;;7.95;;
23370;SDS011;11858;51.056;3.712;2023-03-12T03:38:50;15.05;;;7.53;;
23370;SDS011;11858;51.056;3.712;2023-03-12T03:41:16;14.50;;;7.65;;
23370;SDS011;11858;51.056;3.712;2023-03-12T03:43:43;16.25;;;8.00;;
23370;SDS011;11858;51.056;3.712;2023-03-12T03:46:10;13.18;;;7.10;;
23370;SDS011;11858;51.056;3.712;2023-03-12T03:48:37;16.98;;;7.55;;
23370;SDS011;11858;51.056;3.712;2023-03-12T03:51:03;18.77;;;8.10;;
23370;SDS011;11858;51.056;3.712;2023-03-12T03:53:30;13.00;;;7.35;;
23370;SDS011;11858;51.056;3.712;2023-03-12T03:55:56;13.45;;;8.13;;
23370;SDS011;11858;51.056;3.712;2023-03-12T03:58:23;15.43;;;8.40;;
23370;SDS011;11858;51.056;3.712;2023-03-12T04:00:49;12.75;;;7.65;;
23370;SDS011;11858;51.056;3.712;2023-03-12T04:03:15;14.48;;;8.23;;
23370;SDS011;11858;51.056;3.712;2023-03-12T04:05:40;13.73;;;7.78;;
23370;SDS011;11858;51.056;3.712;2023-03-12T04:08:09;18.05;;;8.80;;
23370;SDS011;11858;51.056;3.712;2023-03-12T04:10:36;19.70;;;9.13;;
23370;SDS011;11858;51.056;3.712;2023-03-12T04:13:02;16.50;;;9.75;;
23370;SDS011;11858;51.056;3.712;2023-03-12T04:15:28;16.73;;;9.00;;
23370;SDS011;11858;51.056;3.712;2023-03-12T04:17:54;15.35;;;9.15;;
23370;SDS011;11858;51.056;3.712;2023-03-12T04:20:20;14.32;;;9.27;;
23370;SDS011;11858;51.056;3.712;2023-03-12T04:22:45;16.33;;;9.65;;
23370;SDS011;11858;51.056;3.712;2023-03-12T04:25:11;16.40;;;10.73;;
23370;SDS011;11858;51.056;3.712;2023-03-12T04:27:37;18.75;;;10.68;;
23370;SDS011;11858;51.056;3.712;2023-03-12T04:30:03;22.80;;;11.48;;
23370;SDS011;11858;51.056;3.712;2023-03-12T04:32:29;27.10;;;12.27;;
23370;SDS011;11858;51.056;3.712;2023-03-12T04:34:55;22.75;;;13.27;;
23370;SDS011;11858;51.056;3.712;2023-03-12T04:37:21;25.65;;;13.93;;
23370;SDS011;11858;51.056;3.712;2023-03-12T04:39:46;26.27;;;13.52;;
23370;SDS011;11858;51.056;3.712;2023-03-12T04:42:12;27.27;;;14.93;;
23370;SDS011;11858;51.056;3.712;2023-03-12T04:44:38;29.60;;;15.23;;
23370;SDS011;11858;51.056;3.712;2023-03-12T04:47:05;24.48;;;14.50;;
23370;SDS011;11858;51.056;3.712;2023-03-12T04:49:31;26.08;;;16.73;;
23370;SDS011;11858;51.056;3.712;2023-03-12T04:51:56;28.17;;;16.20;;
23370;SDS011;11858;51.056;3.712;2023-03-12T04:54:22;31.25;;;17.48;;
23370;SDS011;11858;51.056;3.712;2023-03-12T04:56:48;32.47;;;16.75;;
23370;SDS011;11858;51.056;3.712;2023-03-12T04:59:14;29.25;;;16.80;;
23370;SDS011;11858;51.056;3.712;2023-03-12T05:01:41;32.03;;;18.73;;
23370;SDS011;11858;51.056;3.712;2023-03-12T05:04:07;32.95;;;19.40;;
23370;SDS011;11858;51.056;3.712;2023-03-12T05:06:33;35.75;;;19.60;;
23370;SDS011;11858;51.056;3.712;2023-03-12T05:08:59;38.40;;;19.85;;
23370;SDS011;11858;51.056;3.712;2023-03-12T05:11:25;38.25;;;19.27;;
23370;SDS011;11858;51.056;3.712;2023-03-12T05:13:50;36.97;;;20.30;;
23370;SDS011;11858;51.056;3.712;2023-03-12T05:16:16;39.05;;;23.35;;
23370;SDS011;11858;51.056;3.712;2023-03-12T05:18:42;40.28;;;23.05;;
23370;SDS011;11858;51.056;3.712;2023-03-12T05:21:18;41.47;;;21.88;;
23370;SDS011;11858;51.056;3.712;2023-03-12T05:23:45;42.47;;;23.48;;
23370;SDS011;11858;51.056;3.712;2023-03-12T05:26:18;44.67;;;24.17;;
23370;SDS011;11858;51.056;3.712;2023-03-12T05:28:47;45.38;;;24.75;;
23370;SDS011;11858;51.056;3.712;2023-03-12T05:31:13;45.75;;;24.08;;
23370;SDS011;11858;51.056;3.712;2023-03-12T05:33:40;41.67;;;23.67;;
23370;SDS011;11858;51.056;3.712;2023-03-12T05:36:06;44.45;;;22.92;;
23370;SDS011;11858;51.056;3.712;2023-03-12T05:38:33;43.88;;;25.83;;
23370;SDS011;11858;51.056;3.712;2023-03-12T05:40:59;55.88;;;28.23;;
23370;SDS011;11858;51.056;3.712;2023-03-12T05:43:25;51.85;;;25.70;;
23370;SDS011;11858;51.056;3.712;2023-03-12T05:45:52;56.65;;;27.45;;
23370;SDS011;11858;51.056;3.712;2023-03-12T05:48:18;58.03;;;29.45;;
23370;SDS011;11858;51.056;3.712;2023-03-12T05:50:44;54.92;;;26.27;;
23370;SDS011;11858;51.056;3.712;2023-03-12T05:53:10;67.15;;;31.38;;
23370;SDS011;11858;51.056;3.712;2023-03-12T05:55:36;66.10;;;30.50;;
23370;SDS011;11858;51.056;3.712;2023-03-12T05:58:04;60.08;;;27.38;;
23370;SDS011;11858;51.056;3.712;2023-03-12T06:00:31;57.40;;;28.88;;
23370;SDS011;11858;51.056;3.712;2023-03-12T06:02:59;59.83;;;28.55;;
23370;SDS011;11858;51.056;3.712;2023-03-12T06:05:25;60.38;;;27.63;;
23370;SDS011;11858;51.056;3.712;2023-03-12T06:07:51;66.03;;;31.60;;
23370;SDS011;11858;51.056;3.712;2023-03-12T06:10:17;57.20;;;27.40;;
23370;SDS011;11858;51.056;3.712;2023-03-12T06:12:43;58.28;;;27.10;;
23370;SDS011;11858;51.056;3.712;2023-03-12T06:15:09;56.15;;;26.77;;
23370;SDS011;11858;51.056;3.712;2023-03-12T06:17:35;62.45;;;29.98;;
23370;SDS011;11858;51.056;3.712;2023-03-12T06:20:01;66.40;;;28.23;;
23370;SDS011;11858;51.056;3.712;2023-03-12T06:22:27;64.20;;;32.10;;
23370;SDS011;11858;51.056;3.712;2023-03-12T06:24:54;68.18;;;29.98;;
23370;SDS011;11858;51.056;3.712;2023-03-12T06:27:19;64.78;;;29.15;;
23370;SDS011;11858;51.056;3.712;2023-03-12T06:29:45;66.65;;;30.70;;
23370;SDS011;11858;51.056;3.712;2023-03-12T06:32:11;74.65;;;29.85;;
23370;SDS011;11858;51.056;3.712;2023-03-12T06:34:37;70.55;;;29.25;;
23370;SDS011;11858;51.056;3.712;2023-03-12T06:37:03;73.07;;;33.08;;
23370;SDS011;11858;51.056;3.712;2023-03-12T06:39:29;67.45;;;30.33;;
23370;SDS011;11858;51.056;3.712;2023-03-12T06:41:55;69.20;;;32.78;;
23370;SDS011;11858;51.056;3.712;2023-03-12T06:44:21;68.47;;;32.50;;
23370;SDS011;11858;51.056;3.712;2023-03-12T06:46:47;64.95;;;30.33;;
23370;SDS011;11858;51.056;3.712;2023-03-12T06:49:13;75.28;;;33.90;;
23370;SDS011;11858;51.056;3.712;2023-03-12T06:51:39;71.97;;;30.58;;
23370;SDS011;11858;51.056;3.712;2023-03-12T06:54:05;76.55;;;31.88;;
23370;SDS011;11858;51.056;3.712;2023-03-12T06:56:31;77.05;;;32.45;;
23370;SDS011;11858;51.056;3.712;2023-03-12T06:58:57;78.25;;;32.15;;
23370;SDS011;11858;51.056;3.712;2023-03-12T07:01:23;74.53;;;31.55;;
23370;SDS011;11858;51.056;3.712;2023-03-12T07:03:49;92.97;;;35.55;;
23370;SDS011;11858;51.056;3.712;2023-03-12T07:06:15;86.18;;;31.92;;
23370;SDS011;11858;51.056;3.712;2023-03-12T07:08:43;84.75;;;33.72;;
23370;SDS011;11858;51.056;3.712;2023-03-12T07:11:09;79.03;;;31.42;;
23370;SDS011;11858;51.056;3.712;2023-03-12T07:13:35;84.50;;;29.85;;
23370;SDS011;11858;51.056;3.712;2023-03-12T07:16:01;83.00;;;28.17;;
23370;SDS011;11858;51.056;3.712;2023-03-12T07:18:27;78.90;;;28.52;;
23370;SDS011;11858;51.056;3.712;2023-03-12T07:20:53;77.07;;;26.50;;
23370;SDS011;11858;51.056;3.712;2023-03-12T07:23:19;83.13;;;27.75;;
23370;SDS011;11858;51.056;3.712;2023-03-12T07:25:45;79.78;;;26.25;;
23370;SDS011;11858;51.056;3.712;2023-03-12T07:28:12;72.90;;;24.80;;
23370;SDS011;11858;51.056;3.712;2023-03-12T07:30:39;79.10;;;24.70;;
23370;SDS011;11858;51.056;3.712;2023-03-12T07:33:06;88.47;;;24.55;;
23370;SDS011;11858;51.056;3.712;2023-03-12T07:35:35;73.30;;;21.73;;
23370;SDS011;11858;51.056;3.712;2023-03-12T07:38:03;67.03;;;20.17;;
23370;SDS011;11858;51.056;3.712;2023-03-12T07:40:29;74.47;;;18.92;;
23370;SDS011;11858;51.056;3.712;2023-03-12T07:42:56;69.57;;;16.90;;
23370;SDS011;11858;51.056;3.712;2023-03-12T07:45:22;61.28;;;15.57;;
23370;SDS011;11858;51.056;3.712;2023-03-12T07:47:48;70.22;;;16.63;;
23370;SDS011;11858;51.056;3.712;2023-03-12T07:50:15;57.90;;;14.52;;
23370;SDS011;11858;51.056;3.712;2023-03-12T07:52:41;56.80;;;13.30;;
23370;SDS011;11858;51.056;3.712;2023-03-12T07:55:07;61.05;;;13.15;;
23370;SDS011;11858;51.056;3.712;2023-03-12T07:57:34;53.55;;;11.80;;
23370;SDS011;11858;51.056;3.712;2023-03-12T08:00:00;53.60;;;12.40;;
23370;SDS011;11858;51.056;3.712;2023-03-12T08:02:26;50.85;;;12.18;;
23370;SDS011;11858;51.056;3.712;2023-03-12T08:04:52;54.20;;;11.80;;
23370;SDS011;11858;51.056;3.712;2023-03-12T08:07:17;59.38;;;12.27;;
23370;SDS011;11858;51.056;3.712;2023-03-12T08:09:43;44.78;;;10.60;;
23370;SDS011;11858;51.056;3.712;2023-03-12T08:12:09;57.53;;;10.45;;
23370;SDS011;11858;51.056;3.712;2023-03-12T08:14:35;57.20;;;10.48;;
23370;SDS011;11858;51.056;3.712;2023-03-12T08:17:01;50.10;;;9.30;;
23370;SDS011;11858;51.056;3.712;2023-03-12T08:19:27;49.00;;;10.55;;
23370;SDS011;11858;51.056;3.712;2023-03-12T08:21:53;45.35;;;8.73;;
23370;SDS011;11858;51.056;3.712;2023-03-12T08:24:19;48.08;;;9.85;;
23370;SDS011;11858;51.056;3.712;2023-03-12T08:26:46;44.15;;;9.80;;
23370;SDS011;11858;51.056;3.712;2023-03-12T08:29:12;43.30;;;9.23;;
23370;SDS011;11858;51.056;3.712;2023-03-12T08:31:38;51.38;;;9.57;;
23370;SDS011;11858;51.056;3.712;2023-03-12T08:34:04;44.85;;;8.10;;
23370;SDS011;11858;51.056;3.712;2023-03-12T08:36:30;44.90;;;9.57;;
23370;SDS011;11858;51.056;3.712;2023-03-12T08:38:56;55.33;;;9.48;;
23370;SDS011;11858;51.056;3.712;2023-03-12T08:41:22;48.38;;;9.38;;
23370;SDS011;11858;51.056;3.712;2023-03-12T08:43:48;47.65;;;8.63;;
23370;SDS011;11858;51.056;3.712;2023-03-12T08:46:15;49.42;;;10.02;;
23370;SDS011;11858;51.056;3.712;2023-03-12T08:48:40;48.35;;;9.07;;
23370;SDS011;11858;51.056;3.712;2023-03-12T08:51:06;58.28;;;9.52;;
23370;SDS011;11858;51.056;3.712;2023-03-12T08:53:34;47.75;;;8.85;;
23370;SDS011;11858;51.056;3.712;2023-03-12T08:56:01;58.63;;;9.27;;
23370;SDS011;11858;51.056;3.712;2023-03-12T08:58:27;56.83;;;9.00;;
23370;SDS011;11858;51.056;3.712;2023-03-12T09:00:54;52.33;;;9.43;;
23370;SDS011;11858;51.056;3.712;2023-03-12T09:03:20;60.35;;;9.77;;
23370;SDS011;11858;51.056;3.712;2023-03-12T09:05:47;57.60;;;9.43;;
23370;SDS011;11858;51.056;3.712;2023-03-12T09:08:14;47.42;;;8.80;;
23370;SDS011;11858;51.056;3.712;2023-03-12T09:10:45;48.40;;;9.38;;
23370;SDS011;11858;51.056;3.712;2023-03-12T09:13:13;45.92;;;9.82;;
23370;SDS011;11858;51.056;3.712;2023-03-12T09:15:38;51.65;;;10.68;;
23370;SDS011;11858;51.056;3.712;2023-03-12T09:18:04;51.42;;;11.82;;
23370;SDS011;11858;51.056;3.712;2023-03-12T09:20:30;56.95;;;12.93;;
23370;SDS011;11858;51.056;3.712;2023-03-12T09:22:56;55.05;;;12.18;;
23370;SDS011;11858;51.056;3.712;2023-03-12T09:25:22;54.10;;;12.80;;
23370;SDS011;11858;51.056;3.712;2023-03-12T09:27:48;57.05;;;13.95;;
23370;SDS011;11858;51.056;3.712;2023-03-12T09:30:15;48.60;;;13.40;;
23370;SDS011;11858;51.056;3.712;2023-03-12T09:32:42;55.08;;;14.45;;
23370;SDS011;11858;51.056;3.712;2023-03-12T09:35:10;60.78;;;16.52;;
23370;SDS011;11858;51.056;3.712;2023-03-12T09:37:37;54.38;;;16.50;;
23370;SDS011;11858;51.056;3.712;2023-03-12T09:40:03;52.22;;;15.77;;
23370;SDS011;11858;51.056;3.712;2023-03-12T09:45:04;53.63;;;15.52;;
23370;SDS011;11858;51.056;3.712;2023-03-12T09:47:32;54.72;;;16.60;;
23370;SDS011;11858;51.056;3.712;2023-03-12T09:50:03;53.95;;;17.30;;
23370;SDS011;11858;51.056;3.712;2023-03-12T09:52:46;55.15;;;18.85;;
23370;SDS011;11858;51.056;3.712;2023-03-12T09:55:20;61.78;;;19.48;;
23370;SDS011;11858;51.056;3.712;2023-03-12T09:57:47;54.67;;;18.90;;
23370;SDS011;11858;51.056;3.712;2023-03-12T10:00:16;57.63;;;19.67;;
23370;SDS011;11858;51.056;3.712;2023-03-12T10:05:39;48.75;;;19.33;;
23370;SDS011;11858;51.056;3.712;2023-03-12T10:27:40;62.80;;;26.55;;
23370;SDS011;11858;51.056;3.712;2023-03-12T10:30:15;55.88;;;26.00;;
23370;SDS011;11858;51.056;3.712;2023-03-12T10:32:48;45.95;;;25.92;;
23370;SDS011;11858;51.056;3.712;2023-03-12T10:35:18;54.33;;;26.47;;
23370;SDS011;11858;51.056;3.712;2023-03-12T10:37:47;51.13;;;26.80;;
23370;SDS011;11858;51.056;3.712;2023-03-12T10:40:17;52.92;;;26.42;;
23370;SDS011;11858;51.056;3.712;2023-03-12T10:42:46;49.83;;;26.00;;
23370;SDS011;11858;51.056;3.712;2023-03-12T10:48:23;51.35;;;26.25;;
23370;SDS011;11858;51.056;3.712;2023-03-12T10:51:06;52.55;;;26.83;;
23370;SDS011;11858;51.056;3.712;2023-03-12T10:53:36;52.03;;;26.67;;
23370;SDS011;11858;51.056;3.712;2023-03-12T10:58:44;49.83;;;26.40;;
23370;SDS011;11858;51.056;3.712;2023-03-12T11:01:28;49.78;;;26.30;;
23370;SDS011;11858;51.056;3.712;2023-03-12T11:04:08;44.90;;;25.17;;
23370;SDS011;11858;51.056;3.712;2023-03-12T11:06:41;50.60;;;26.13;;
23370;SDS011;11858;51.056;3.712;2023-03-12T11:09:18;47.88;;;25.08;;
23370;SDS011;11858;51.056;3.712;2023-03-12T11:11:44;53.50;;;26.48;;
23370;SDS011;11858;51.056;3.712;2023-03-12T11:14:16;45.78;;;24.02;;
23370;SDS011;11858;51.056;3.712;2023-03-12T11:16:44;50.25;;;24.55;;
23370;SDS011;11858;51.056;3.712;2023-03-12T11:19:14;53.58;;;24.25;;
23370;SDS011;11858;51.056;3.712;2023-03-12T11:21:58;54.45;;;24.85;;
23370;SDS011;11858;51.056;3.712;2023-03-12T11:24:35;54.10;;;24.83;;
23370;SDS011;11858;51.056;3.712;2023-03-12T11:27:31;54.08;;;24.17;;
23370;SDS011;11858;51.056;3.712;2023-03-12T11:32:37;56.75;;;23.77;;
23370;SDS011;11858;51.056;3.712;2023-03-12T11:35:11;55.40;;;23.02;;
23370;SDS011;11858;51.056;3.712;2023-03-12T11:48:55;57.75;;;23.48;;
23370;SDS011;11858;51.056;3.712;2023-03-12T12:00:13;54.70;;;25.15;;
23370;SDS011;11858;51.056;3.712;2023-03-12T12:08:28;47.00;;;24.17;;
23370;SDS011;11858;51.056;3.712;2023-03-12T12:35:26;49.70;;;25.15;;
23370;SDS011;11858;51.056;3.712;2023-03-12T12:38:24;45.10;;;24.27;;
23370;SDS011;11858;51.056;3.712;2023-03-12T12:40:55;51.03;;;25.73;;
23370;SDS011;11858;51.056;3.712;2023-03-12T12:44:30;47.92;;;25.00;;
23370;SDS011;11858;51.056;3.712;2023-03-12T12:46:42;46.63;;;24.20;;
23370;SDS011;11858;51.056;3.712;2023-03-12T12:49:18;42.75;;;23.95;;
23370;SDS011;11858;51.056;3.712;2023-03-12T12:51:54;52.13;;;25.27;;
23370;SDS011;11858;51.056;3.712;2023-03-12T12:54:29;51.47;;;24.75;;
23370;SDS011;11858;51.056;3.712;2023-03-12T13:02:46;47.60;;;24.40;;
23370;SDS011;11858;51.056;3.712;2023-03-12T13:05:20;58.55;;;24.27;;
23370;SDS011;11858;51.056;3.712;2023-03-12T13:07:46;46.40;;;23.73;;
23370;SDS011;11858;51.056;3.712;2023-03-12T13:12:57;50.35;;;23.40;;
23370;SDS011;11858;51.056;3.712;2023-03-12T13:18:00;39.72;;;21.60;;
23370;SDS011;11858;51.056;3.712;2023-03-12T13:26:59;45.85;;;23.50;;
23370;SDS011;11858;51.056;3.712;2023-03-12T13:29:12;44.92;;;23.17;;
23370;SDS011;11858;51.056;3.712;2023-03-12T13:32:03;41.50;;;23.02;;
23370;SDS011;11858;51.056;3.712;2023-03-12T13:34:31;44.90;;;23.83;;
23370;SDS011;11858;51.056;3.712;2023-03-12T13:37:17;50.47;;;24.63;;
23370;SDS011;11858;51.056;3.712;2023-03-12T13:39:45;51.03;;;22.77;;
23370;SDS011;11858;51.056;3.712;2023-03-12T13:44:49;52.83;;;23.55;;
23370;SDS011;11858;51.056;3.712;2023-03-12T13:49:59;47.05;;;22.83;;
23370;SDS011;11858;51.056;3.712;2023-03-12T13:52:40;51.03;;;22.77;;
23370;SDS011;11858;51.056;3.712;2023-03-12T13:57:42;51.28;;;21.50;;
23370;SDS011;11858;51.056;3.712;2023-03-12T14:00:15;49.78;;;21.67;;
23370;SDS011;11858;51.056;3.712;2023-03-12T14:02:53;54.75;;;23.42;;
23370;SDS011;11858;51.056;3.712;2023-03-12T14:05:28;51.58;;;23.63;;
23370;SDS011;11858;51.056;3.712;2023-03-12T14:08:06;45.70;;;23.38;;
23370;SDS011;11858;51.056;3.712;2023-03-12T14:10:59;57.28;;;24.45;;
23370;SDS011;11858;51.056;3.712;2023-03-12T14:16:15;42.42;;;24.05;;
23370;SDS011;11858;51.056;3.712;2023-03-12T14:18:52;42.45;;;24.05;;
23370;SDS011;11858;51.056;3.712;2023-03-12T14:21:18;47.17;;;24.33;;
23370;SDS011;11858;51.056;3.712;2023-03-12T14:23:50;47.22;;;23.23;;
23370;SDS011;11858;51.056;3.712;2023-03-12T14:26:24;49.35;;;22.33;;
23370;SDS011;11858;51.056;3.712;2023-03-12T14:29:03;45.83;;;22.48;;
23370;SDS011;11858;51.056;3.712;2023-03-12T14:31:30;52.53;;;21.80;;
23370;SDS011;11858;51.056;3.712;2023-03-12T14:34:01;49.15;;;21.88;;
23370;SDS011;11858;51.056;3.712;2023-03-12T14:36:48;51.47;;;21.38;;
23370;SDS011;11858;51.056;3.712;2023-03-12T14:39:24;53.42;;;21.27;;
23370;SDS011;11858;51.056;3.712;2023-03-12T14:42:00;50.95;;;20.85;;
23370;SDS011;11858;51.056;3.712;2023-03-12T14:44:29;50.55;;;23.35;;
23370;SDS011;11858;51.056;3.712;2023-03-12T14:47:01;46.28;;;20.58;;
23370;SDS011;11858;51.056;3.712;2023-03-12T14:49:29;48.95;;;21.95;;
23370;SDS011;11858;51.056;3.712;2023-03-12T14:51:55;46.85;;;20.27;;
23370;SDS011;11858;51.056;3.712;2023-03-12T14:54:23;47.47;;;20.00;;
23370;SDS011;11858;51.056;3.712;2023-03-12T14:56:51;54.03;;;20.08;;
23370;SDS011;11858;51.056;3.712;2023-03-12T14:59:30;47.22;;;19.73;;
23370;SDS011;11858;51.056;3.712;2023-03-12T15:02:00;55.45;;;19.85;;
23370;SDS011;11858;51.056;3.712;2023-03-12T15:04:37;50.83;;;23.60;;
23370;SDS011;11858;51.056;3.712;2023-03-12T15:07:04;39.90;;;22.95;;
23370;SDS011;11858;51.056;3.712;2023-03-12T15:09:34;48.85;;;25.02;;
23370;SDS011;11858;51.056;3.712;2023-03-12T15:14:27;53.08;;;25.13;;
23370;SDS011;11858;51.056;3.712;2023-03-12T15:16:57;41.22;;;22.35;;
23370;SDS011;11858;51.056;3.712;2023-03-12T15:19:25;53.47;;;24.77;;
23370;SDS011;11858;51.056;3.712;2023-03-12T15:21:55;52.60;;;23.75;;
23370;SDS011;11858;51.056;3.712;2023-03-12T15:24:21;50.13;;;23.02;;
23370;SDS011;11858;51.056;3.712;2023-03-12T15:26:48;52.50;;;23.38;;
23370;SDS011;11858;51.056;3.712;2023-03-12T15:29:24;55.97;;;22.10;;
23370;SDS011;11858;51.056;3.712;2023-03-12T15:31:55;56.22;;;20.23;;
23370;SDS011;11858;51.056;3.712;2023-03-12T15:34:27;53.45;;;21.42;;
23370;SDS011;11858;51.056;3.712;2023-03-12T15:36:58;51.17;;;20.63;;
23370;SDS011;11858;51.056;3.712;2023-03-12T15:41:59;49.13;;;19.20;;
23370;SDS011;11858;51.056;3.712;2023-03-12T15:44:34;50.85;;;20.02;;
23370;SDS011;11858;51.056;3.712;2023-03-12T15:47:10;59.50;;;22.00;;
23370;SDS011;11858;51.056;3.712;2023-03-12T15:49:39;55.63;;;18.83;;
23370;SDS011;11858;51.056;3.712;2023-03-12T15:52:24;59.75;;;18.33;;
23370;SDS011;11858;51.056;3.712;2023-03-12T15:55:06;46.67;;;18.80;;
23370;SDS011;11858;51.056;3.712;2023-03-12T15:57:52;48.90;;;18.67;;
23370;SDS011;11858;51.056;3.712;2023-03-12T16:00:21;54.85;;;17.83;;
23370;SDS011;11858;51.056;3.712;2023-03-12T16:02:59;47.45;;;18.25;;
23370;SDS011;11858;51.056;3.712;2023-03-12T16:05:34;49.95;;;18.67;;
23370;SDS011;11858;51.056;3.712;2023-03-12T16:10:40;46.42;;;17.88;;
23370;SDS011;11858;51.056;3.712;2023-03-12T16:13:08;52.63;;;17.33;;
23370;SDS011;11858;51.056;3.712;2023-03-12T16:15:38;48.92;;;18.35;;
23370;SDS011;11858;51.056;3.712;2023-03-12T16:18:04;43.22;;;16.67;;
23370;SDS011;11858;51.056;3.712;2023-03-12T16:20:35;40.10;;;17.63;;
23370;SDS011;11858;51.056;3.712;2023-03-12T16:23:01;46.53;;;19.48;;
23370;SDS011;11858;51.056;3.712;2023-03-12T16:25:26;46.17;;;17.02;;
23370;SDS011;11858;51.056;3.712;2023-03-12T16:27:54;40.55;;;15.95;;
23370;SDS011;11858;51.056;3.712;2023-03-12T16:30:29;45.72;;;17.95;;
23370;SDS011;11858;51.056;3.712;2023-03-12T16:32:57;50.92;;;17.55;;
23370;SDS011;11858;51.056;3.712;2023-03-12T16:35:25;54.10;;;16.30;;
23370;SDS011;11858;51.056;3.712;2023-03-12T16:37:52;44.58;;;15.90;;
23370;SDS011;11858;51.056;3.712;2023-03-12T16:40:18;49.55;;;16.83;;
23370;SDS011;11858;51.056;3.712;2023-03-12T16:42:46;52.33;;;15.32;;